Terminal Aerodrome Forecast
Issued by NWS Newport/Morehead City, NC

Home | Current Version | Previous Version | Graphics & Text | Print | Product List | Glossary On
Versions: 1 2 3 4 5 6 7 8 9 10 11 12 13 14 15
070
FTUS42 KMHX 251120
TAFEWN
TAF
KEWN 251120Z 2512/2612 04008KT P6SM OVC024
     FM251800 04007KT P6SM VCSH BKN035
     FM252300 04004KT P6SM SCT035=

USA.gov is the U.S. government's official web portal to all federal, state and local government web resources and services.